Time;durP1;ratioP1;P1;durP2;ratioP2;P2;SDS_P1;SDS_P2;PMS_P1;PMS_P2;Temp;Humidity;BMP_temperature;BMP_pressure;BME280_temperature;BME280_humidity;BME280_pressure;Samples;Min_cycle;Max_cycle;Signal;HPM_P1;HPM_P2
2022/11/16 00:00:03;;;;;;;9.43;5.10;;;;;;;;;;5111946;28;20035;-69
2022/11/16 00:02:29;;;;;;;8.45;4.50;;;;;;;;;;5111608;28;20024;-69
2022/11/16 00:04:55;;;;;;;9.50;5.25;;;;;;;;;;5112028;28;20027;-69
2022/11/16 00:07:22;;;;;;;7.22;5.03;;;;;;;;;;5111855;28;20024;-70
2022/11/16 00:09:48;;;;;;;6.75;4.00;;;;;;;;;;5114093;28;20506;-69
2022/11/16 00:12:14;;;;;;;8.23;5.10;;;;;;;;;;5115603;28;20031;-69
2022/11/16 00:14:41;;;;;;;9.18;3.80;;;;;;;;;;5115525;28;20037;-69
2022/11/16 00:17:07;;;;;;;5.43;3.30;;;;;;;;;;5114937;28;20029;-69
2022/11/16 00:19:33;;;;;;;5.75;3.10;;;;;;;;;;5115321;28;20031;-70
2022/11/16 00:21:59;;;;;;;4.60;2.60;;;;;;;;;;5115175;28;20016;-69
2022/11/16 00:24:26;;;;;;;7.63;2.38;;;;;;;;;;5115017;28;20020;-69
2022/11/16 00:26:53;;;;;;;5.65;2.85;;;;;;;;;;5115474;28;20028;-69
2022/11/16 00:29:21;;;;;;;3.40;2.58;;;;;;;;;;5114796;28;20403;-69
2022/11/16 00:31:48;;;;;;;3.15;2.42;;;;;;;;;;5115230;28;20024;-69
2022/11/16 00:34:15;;;;;;;4.38;2.40;;;;;;;;;;5114974;28;20028;-69
2022/11/16 00:36:41;;;;;;;6.57;3.10;;;;;;;;;;5114871;28;20050;-69
2022/11/16 00:39:09;;;;;;;5.78;2.42;;;;;;;;;;5114727;28;20032;-69
2022/11/16 00:41:36;;;;;;;7.00;2.63;;;;;;;;;;5114960;28;20016;-69
2022/11/16 00:44:02;;;;;;;4.65;2.10;;;;;;;;;;5114813;28;20032;-69
2022/11/16 00:46:28;;;;;;;5.32;2.00;;;;;;;;;;5114514;28;20020;-69
2022/11/16 00:48:55;;;;;;;5.82;2.05;;;;;;;;;;5114784;28;20086;-69
2022/11/16 00:51:21;;;;;;;3.55;1.80;;;;;;;;;;5115128;28;20026;-69
2022/11/16 00:53:47;;;;;;;5.50;1.42;;;;;;;;;;5114533;28;20024;-69
2022/11/16 00:56:13;;;;;;;3.22;1.95;;;;;;;;;;5114595;28;20512;-69
2022/11/16 00:58:40;;;;;;;4.13;1.90;;;;;;;;;;5114288;28;20032;-69
2022/11/16 01:01:07;;;;;;;5.63;2.13;;;;;;;;;;5114448;28;20016;-69
2022/11/16 01:03:34;;;;;;;6.63;2.38;;;;;;;;;;5114452;28;20035;-70
2022/11/16 01:06:01;;;;;;;5.60;2.90;;;;;;;;;;5114283;28;20027;-69
2022/11/16 01:08:27;;;;;;;4.70;2.20;;;;;;;;;;5114254;28;20016;-69
2022/11/16 01:10:54;;;;;;;3.22;1.70;;;;;;;;;;5114644;28;20032;-69
2022/11/16 01:13:20;;;;;;;3.60;1.55;;;;;;;;;;5113975;28;20032;-69
2022/11/16 01:15:47;;;;;;;4.57;1.67;;;;;;;;;;5095949;28;20037;-70
2022/11/16 01:18:13;;;;;;;2.58;1.40;;;;;;;;;;5114028;28;20057;-69
2022/11/16 01:20:40;;;;;;;2.83;1.38;;;;;;;;;;5113893;28;20491;-69
2022/11/16 01:23:06;;;;;;;2.88;1.45;;;;;;;;;;5095861;28;20396;-69
2022/11/16 01:25:32;;;;;;;2.65;1.40;;;;;;;;;;5114454;28;20028;-69
2022/11/16 01:27:59;;;;;;;5.30;1.70;;;;;;;;;;5113631;28;20533;-69
2022/11/16 01:30:25;;;;;;;3.13;1.67;;;;;;;;;;5114151;28;20038;-69
2022/11/16 01:32:51;;;;;;;5.45;2.10;;;;;;;;;;5113955;28;20022;-69
2022/11/16 01:35:18;;;;;;;1.92;1.52;;;;;;;;;;5113852;28;20037;-69
2022/11/16 01:37:45;;;;;;;2.58;1.50;;;;;;;;;;5113624;28;20407;-69
2022/11/16 01:40:12;;;;;;;1.65;1.42;;;;;;;;;;5095645;28;20392;-69
2022/11/16 01:42:39;;;;;;;2.60;1.40;;;;;;;;;;5113456;28;20024;-69
2022/11/16 01:45:31;;;;;;;2.28;1.27;;;;;;;;;;5106519;28;20028;-69
2022/11/16 01:47:58;;;;;;;2.75;1.33;;;;;;;;;;5102716;28;20024;-69
2022/11/16 01:50:24;;;;;;;4.10;1.45;;;;;;;;;;5113460;28;20027;-69
2022/11/16 01:52:54;;;;;;;2.97;1.20;;;;;;;;;;5113371;28;20019;-69
2022/11/16 01:55:22;;;;;;;2.58;1.63;;;;;;;;;;5113492;28;20064;-70
2022/11/16 01:57:49;;;;;;;2.58;1.30;;;;;;;;;;5112899;28;20023;-69
2022/11/16 02:00:15;;;;;;;3.22;1.60;;;;;;;;;;5094912;28;20032;-69
2022/11/16 02:02:42;;;;;;;1.85;1.17;;;;;;;;;;5113425;28;20028;-69
2022/11/16 02:05:10;;;;;;;4.07;1.50;;;;;;;;;;5113517;28;20034;-69
2022/11/16 02:10:44;;;;;;;1.92;1.52;;;;;;;;;;5113048;28;20091;-69
2022/11/16 02:13:25;;;;;;;2.55;1.42;;;;;;;;;;5113015;28;20048;-69
2022/11/16 02:15:55;;;;;;;4.00;1.52;;;;;;;;;;5113067;28;20136;-69
2022/11/16 02:18:40;;;;;;;2.40;1.40;;;;;;;;;;5112912;28;20019;-69
2022/11/16 02:21:22;;;;;;;3.17;1.83;;;;;;;;;;5112839;28;20031;-69
2022/11/16 02:24:08;;;;;;;4.35;1.63;;;;;;;;;;5112798;28;20024;-69
2022/11/16 02:26:44;;;;;;;3.80;1.63;;;;;;;;;;5010186;28;20124;-69
2022/11/16 02:29:13;;;;;;;7.05;1.60;;;;;;;;;;5010300;28;20042;-69
2022/11/16 02:31:46;;;;;;;4.93;1.55;;;;;;;;;;5009671;28;20048;-70
2022/11/16 02:34:15;;;;;;;4.82;1.40;;;;;;;;;;5010474;28;20037;-69
2022/11/16 02:36:41;;;;;;;2.45;1.65;;;;;;;;;;5010175;28;20049;-69
2022/11/16 02:39:10;;;;;;;4.53;1.60;;;;;;;;;;5010404;28;20034;-69
2022/11/16 02:41:39;;;;;;;4.63;1.77;;;;;;;;;;5010062;28;20021;-69
2022/11/16 02:44:09;;;;;;;4.53;1.17;;;;;;;;;;5010173;28;20531;-69
2022/11/16 02:46:36;;;;;;;3.60;1.60;;;;;;;;;;5015085;28;20037;-69
2022/11/16 02:49:04;;;;;;;2.80;1.55;;;;;;;;;;5049872;28;20425;-69
2022/11/16 02:51:32;;;;;;;3.30;1.98;;;;;;;;;;5049737;28;20492;-69
2022/11/16 02:54:11;;;;;;;3.03;1.58;;;;;;;;;;5049760;28;20040;-69
2022/11/16 02:56:52;;;;;;;4.00;1.77;;;;;;;;;;5049289;28;20041;-69
2022/11/16 02:59:19;;;;;;;2.47;1.40;;;;;;;;;;5049588;28;20076;-69
2022/11/16 03:02:09;;;;;;;4.35;1.35;;;;;;;;;;5049762;28;20385;-69
2022/11/16 03:04:37;;;;;;;3.13;1.45;;;;;;;;;;5105787;28;20087;-69
2022/11/16 03:07:05;;;;;;;2.80;1.45;;;;;;;;;;5132969;28;20030;-69
2022/11/16 03:09:33;;;;;;;2.83;1.55;;;;;;;;;;5132874;28;20031;-69
2022/11/16 03:12:02;;;;;;;4.18;1.40;;;;;;;;;;5132919;28;20037;-69
2022/11/16 03:14:37;;;;;;;6.13;1.23;;;;;;;;;;5132823;28;20019;-69
2022/11/16 03:17:05;;;;;;;2.67;1.48;;;;;;;;;;5114707;28;20051;-69
2022/11/16 03:19:39;;;;;;;5.88;1.73;;;;;;;;;;5132922;28;20031;-69
2022/11/16 03:22:26;;;;;;;9.23;2.05;;;;;;;;;;5132886;28;20033;-69
2022/11/16 03:24:52;;;;;;;2.63;1.33;;;;;;;;;;5132428;28;20023;-69
2022/11/16 03:27:19;;;;;;;4.93;1.60;;;;;;;;;;5114737;28;20027;-69
2022/11/16 03:30:02;;;;;;;1.70;1.40;;;;;;;;;;5132748;28;20019;-69
2022/11/16 03:32:30;;;;;;;6.40;1.65;;;;;;;;;;5132623;28;20023;-69
2022/11/16 03:35:00;;;;;;;4.60;1.48;;;;;;;;;;5132529;28;20024;-69
2022/11/16 03:37:27;;;;;;;3.95;1.55;;;;;;;;;;5132597;28;20059;-69
2022/11/16 03:39:54;;;;;;;5.93;1.50;;;;;;;;;;5132368;28;20062;-70
2022/11/16 03:42:21;;;;;;;5.85;1.67;;;;;;;;;;5132751;27;20120;-69
2022/11/16 03:44:49;;;;;;;3.83;1.60;;;;;;;;;;5126978;27;20036;-69
2022/11/16 03:47:15;;;;;;;6.25;1.65;;;;;;;;;;5112001;27;20030;-68
2022/11/16 03:49:46;;;;;;;4.72;2.10;;;;;;;;;;5136467;27;20415;-69
2022/11/16 03:52:13;;;;;;;3.58;1.77;;;;;;;;;;5136488;27;20016;-69
2022/11/16 03:54:40;;;;;;;4.63;1.60;;;;;;;;;;5136153;27;20510;-69
2022/11/16 03:57:06;;;;;;;3.60;1.83;;;;;;;;;;5136300;27;20019;-69
2022/11/16 03:59:33;;;;;;;5.70;1.58;;;;;;;;;;5136332;27;20031;-69
2022/11/16 04:01:59;;;;;;;6.50;1.75;;;;;;;;;;5136257;27;20468;-69
2022/11/16 04:29:12;;;;;;;5.88;2.97;;;;;;;;;;5135737;27;20505;-69
2022/11/16 04:39:58;;;;;;;17.88;6.13;;;;;;;;;;5116956;27;20065;-69
2022/11/16 04:42:24;;;;;;;9.82;5.78;;;;;;;;;;5135593;27;20031;-69
2022/11/16 04:47:35;;;;;;;6.10;2.40;;;;;;;;;;5114700;28;20384;-69
2022/11/16 04:50:02;;;;;;;5.82;2.70;;;;;;;;;;5114889;28;20020;-69
2022/11/16 04:52:28;;;;;;;3.58;2.30;;;;;;;;;;5114488;28;20035;-69
2022/11/16 04:54:54;;;;;;;3.60;2.40;;;;;;;;;;5113972;28;20490;-69
2022/11/16 04:57:20;;;;;;;5.15;2.40;;;;;;;;;;5096577;28;20035;-69
2022/11/16 04:59:47;;;;;;;7.13;2.97;;;;;;;;;;5114319;28;20510;-69
2022/11/16 05:02:14;;;;;;;16.83;10.80;;;;;;;;;;5114780;28;20046;-69
2022/11/16 05:04:41;;;;;;;10.90;6.50;;;;;;;;;;5114701;28;20084;-69
2022/11/16 05:07:11;;;;;;;11.50;8.23;;;;;;;;;;5096103;28;20020;-69
2022/11/16 05:09:41;;;;;;;7.70;3.90;;;;;;;;;;5114292;28;20016;-69
2022/11/16 05:12:13;;;;;;;7.73;4.53;;;;;;;;;;5114448;28;20521;-69
2022/11/16 05:14:40;;;;;;;6.75;3.30;;;;;;;;;;5114114;28;20020;-69
2022/11/16 05:17:06;;;;;;;6.75;5.07;;;;;;;;;;5114187;28;20023;-69
2022/11/16 05:22:18;;;;;;;11.65;7.60;;;;;;;;;;5113913;28;20036;-69
2022/11/16 05:24:44;;;;;;;9.50;5.63;;;;;;;;;;5114134;28;20480;-69
2022/11/16 05:27:12;;;;;;;9.60;5.82;;;;;;;;;;5114106;28;20031;-69
2022/11/16 05:29:39;;;;;;;5.43;3.70;;;;;;;;;;5113780;28;20486;-69
2022/11/16 05:32:05;;;;;;;6.45;2.85;;;;;;;;;;5114271;28;20030;-68
2022/11/16 05:34:32;;;;;;;6.20;2.88;;;;;;;;;;5113562;28;20050;-68
2022/11/16 05:36:58;;;;;;;6.93;3.08;;;;;;;;;;5113584;28;20415;-68
2022/11/16 05:39:25;;;;;;;3.40;2.40;;;;;;;;;;5113522;28;20035;-69
2022/11/16 05:41:52;;;;;;;4.05;2.53;;;;;;;;;;5113688;28;20030;-69
2022/11/16 05:44:18;;;;;;;9.25;2.90;;;;;;;;;;5113477;28;20023;-69
2022/11/16 05:46:45;;;;;;;6.22;2.72;;;;;;;;;;5113723;28;20020;-69
2022/11/16 05:49:12;;;;;;;8.07;3.20;;;;;;;;;;5113530;28;20027;-69
2022/11/16 05:51:43;;;;;;;6.30;2.60;;;;;;;;;;5113403;28;20023;-69
2022/11/16 05:54:11;;;;;;;5.88;3.05;;;;;;;;;;5113513;28;20049;-69
2022/11/16 05:56:38;;;;;;;5.35;2.63;;;;;;;;;;5095227;28;20016;-69
2022/11/16 05:59:04;;;;;;;7.05;3.22;;;;;;;;;;5113269;28;20043;-69
2022/11/16 06:01:30;;;;;;;5.88;3.30;;;;;;;;;;5113753;28;20027;-69
2022/11/16 06:04:00;;;;;;;9.52;3.92;;;;;;;;;;5112781;28;20449;-69
2022/11/16 06:06:27;;;;;;;15.80;7.00;;;;;;;;;;5112264;28;20400;-69
2022/11/16 06:08:54;;;;;;;11.98;5.43;;;;;;;;;;5113067;28;20050;-69
2022/11/16 06:11:20;;;;;;;7.30;3.30;;;;;;;;;;5113197;28;20027;-69
2022/11/16 06:13:47;;;;;;;8.20;3.95;;;;;;;;;;5113083;28;20053;-69
2022/11/16 06:16:13;;;;;;;9.57;4.28;;;;;;;;;;5113078;28;20027;-69
2022/11/16 06:18:41;;;;;;;9.70;3.58;;;;;;;;;;5112924;28;20084;-69
2022/11/16 06:21:07;;;;;;;10.50;3.97;;;;;;;;;;5112913;28;20027;-69
2022/11/16 06:23:33;;;;;;;8.40;4.65;;;;;;;;;;5113301;28;20032;-69
2022/11/16 06:26:00;;;;;;;10.93;4.78;;;;;;;;;;5112830;28;20632;-69
2022/11/16 06:28:27;;;;;;;7.88;4.05;;;;;;;;;;5113127;28;20016;-69
2022/11/16 06:30:53;;;;;;;10.10;4.28;;;;;;;;;;5112826;28;20026;-69
2022/11/16 06:33:20;;;;;;;12.90;6.47;;;;;;;;;;5112406;28;20030;-69
2022/11/16 06:35:46;;;;;;;8.35;5.05;;;;;;;;;;5112636;28;20388;-70
2022/11/16 06:38:17;;;;;;;9.73;4.07;;;;;;;;;;5112536;28;20052;-69
2022/11/16 06:40:54;;;;;;;8.18;4.22;;;;;;;;;;5112529;28;20061;-69
2022/11/16 06:43:20;;;;;;;10.32;6.28;;;;;;;;;;5112656;28;20555;-69
2022/11/16 06:45:53;;;;;;;11.18;6.60;;;;;;;;;;5112797;28;20026;-69
2022/11/16 06:48:20;;;;;;;10.02;4.25;;;;;;;;;;5112385;28;20023;-69
2022/11/16 06:50:50;;;;;;;8.75;4.10;;;;;;;;;;5112657;28;20503;-69
2022/11/16 06:53:17;;;;;;;8.75;3.88;;;;;;;;;;5112679;28;20383;-69
2022/11/16 06:55:43;;;;;;;7.63;4.70;;;;;;;;;;5112458;28;20027;-69
2022/11/16 06:58:10;;;;;;;23.45;12.73;;;;;;;;;;5112529;28;20020;-69
2022/11/16 07:00:36;;;;;;;36.55;21.00;;;;;;;;;;5112011;28;20036;-69
2022/11/16 07:03:03;;;;;;;37.80;23.05;;;;;;;;;;5111626;28;20026;-69
2022/11/16 07:05:30;;;;;;;34.42;17.70;;;;;;;;;;5111174;28;20030;-69
2022/11/16 07:07:56;;;;;;;18.52;9.05;;;;;;;;;;5087242;28;20038;-69
2022/11/16 07:10:22;;;;;;;11.95;7.05;;;;;;;;;;5107039;28;20024;-69
2022/11/16 07:12:49;;;;;;;11.13;5.60;;;;;;;;;;5092657;28;20030;-69
2022/11/16 07:15:15;;;;;;;8.27;5.15;;;;;;;;;;5092273;28;20499;-68
2022/11/16 07:17:41;;;;;;;11.20;4.90;;;;;;;;;;5112236;28;20023;-69
2022/11/16 07:20:10;;;;;;;6.97;4.68;;;;;;;;;;5097162;28;20035;-69
2022/11/16 07:22:37;;;;;;;10.35;5.88;;;;;;;;;;5115939;28;20042;-69
2022/11/16 07:25:03;;;;;;;21.13;10.57;;;;;;;;;;5116248;28;20028;-69
2022/11/16 07:27:30;;;;;;;13.27;6.43;;;;;;;;;;5114899;28;20015;-69
2022/11/16 07:29:56;;;;;;;10.52;4.82;;;;;;;;;;5103716;28;20035;-69
2022/11/16 07:32:22;;;;;;;9.88;6.03;;;;;;;;;;5095213;28;20503;-69
2022/11/16 07:34:49;;;;;;;12.05;6.55;;;;;;;;;;5095646;28;20020;-69
2022/11/16 07:37:15;;;;;;;12.50;5.47;;;;;;;;;;5098136;28;20035;-70
2022/11/16 07:39:42;;;;;;;15.55;5.90;;;;;;;;;;5098020;28;20501;-70
2022/11/16 07:42:10;;;;;;;13.55;7.03;;;;;;;;;;5108980;28;20018;-69
2022/11/16 07:44:37;;;;;;;15.88;8.18;;;;;;;;;;5110736;28;20093;-69
2022/11/16 07:47:04;;;;;;;10.73;5.85;;;;;;;;;;5106384;28;20026;-70
2022/11/16 07:49:30;;;;;;;7.90;4.90;;;;;;;;;;5114534;28;20028;-69
2022/11/16 07:51:56;;;;;;;10.32;5.13;;;;;;;;;;5114192;28;20727;-69
2022/11/16 07:54:23;;;;;;;9.15;5.78;;;;;;;;;;5114680;28;20045;-70
2022/11/16 07:56:49;;;;;;;7.55;5.45;;;;;;;;;;5111248;28;20088;-70
2022/11/16 07:59:15;;;;;;;11.10;5.45;;;;;;;;;;5098932;28;20489;-69
2022/11/16 08:01:42;;;;;;;7.90;5.20;;;;;;;;;;5103273;28;20031;-70
2022/11/16 08:04:08;;;;;;;10.38;5.90;;;;;;;;;;5080947;28;20026;-69
2022/11/16 08:06:34;;;;;;;12.35;5.07;;;;;;;;;;5113474;28;20024;-70
2022/11/16 08:09:01;;;;;;;8.70;5.50;;;;;;;;;;5113547;28;20024;-69
2022/11/16 08:11:27;;;;;;;7.38;5.07;;;;;;;;;;5113647;28;20163;-70
2022/11/16 08:13:53;;;;;;;6.35;4.47;;;;;;;;;;5113360;28;20409;-70
2022/11/16 08:16:21;;;;;;;11.70;6.50;;;;;;;;;;5113481;28;20506;-70
2022/11/16 08:18:47;;;;;;;4.72;3.15;;;;;;;;;;5113564;28;20472;-70
2022/11/16 08:21:15;;;;;;;10.32;5.93;;;;;;;;;;5112567;28;20031;-70
2022/11/16 08:23:43;;;;;;;6.22;3.13;;;;;;;;;;5113218;28;20389;-70
2022/11/16 08:26:14;;;;;;;24.80;5.85;;;;;;;;;;5113540;28;20023;-70
2022/11/16 08:28:41;;;;;;;38.13;6.30;;;;;;;;;;5112864;28;20752;-70
2022/11/16 08:31:14;;;;;;;12.10;3.50;;;;;;;;;;5112312;28;20034;-70
2022/11/16 08:33:41;;;;;;;3.95;3.10;;;;;;;;;;5112978;28;20036;-70
2022/11/16 08:36:09;;;;;;;6.30;3.45;;;;;;;;;;5113470;28;20031;-70
2022/11/16 08:38:35;;;;;;;6.30;3.40;;;;;;;;;;5113058;28;20016;-70
2022/11/16 08:41:01;;;;;;;6.82;3.60;;;;;;;;;;5109514;28;20028;-70
2022/11/16 08:43:29;;;;;;;8.13;4.82;;;;;;;;;;5112175;28;20020;-70
2022/11/16 08:45:57;;;;;;;10.38;5.07;;;;;;;;;;5111828;28;20095;-69
2022/11/16 08:48:23;;;;;;;10.18;4.78;;;;;;;;;;5107728;28;20403;-70
2022/11/16 08:50:49;;;;;;;7.22;3.50;;;;;;;;;;5113288;28;20035;-70
2022/11/16 08:53:16;;;;;;;5.45;2.70;;;;;;;;;;5112774;28;20037;-69
2022/11/16 08:55:42;;;;;;;5.13;3.03;;;;;;;;;;5113132;28;20020;-70
2022/11/16 08:58:09;;;;;;;7.03;2.90;;;;;;;;;;5112280;28;20032;-70
2022/11/16 09:00:36;;;;;;;6.13;2.38;;;;;;;;;;5112574;28;20035;-69
2022/11/16 09:03:02;;;;;;;4.40;2.30;;;;;;;;;;5112651;28;20037;-70
2022/11/16 09:05:28;;;;;;;6.15;2.65;;;;;;;;;;5112337;28;20402;-69
2022/11/16 09:07:55;;;;;;;4.38;2.13;;;;;;;;;;5112648;28;20032;-70
2022/11/16 09:10:24;;;;;;;6.15;2.88;;;;;;;;;;5112624;28;20377;-70
2022/11/16 09:12:50;;;;;;;4.05;2.20;;;;;;;;;;5112255;28;20046;-70
2022/11/16 09:15:18;;;;;;;4.47;2.35;;;;;;;;;;5112803;28;20051;-70
2022/11/16 09:17:44;;;;;;;3.50;2.00;;;;;;;;;;5093830;28;20060;-70
2022/11/16 09:20:11;;;;;;;2.42;2.10;;;;;;;;;;5112399;28;20031;-70
2022/11/16 09:22:37;;;;;;;7.20;4.38;;;;;;;;;;5111913;28;20031;-70
2022/11/16 09:25:04;;;;;;;16.65;8.48;;;;;;;;;;5112186;28;20016;-70
2022/11/16 09:27:30;;;;;;;7.18;2.50;;;;;;;;;;5112123;28;20020;-70
2022/11/16 09:29:56;;;;;;;18.63;9.98;;;;;;;;;;5094027;28;20503;-70
2022/11/16 09:32:23;;;;;;;11.95;6.28;;;;;;;;;;5112334;28;20026;-70
2022/11/16 09:34:49;;;;;;;18.13;10.57;;;;;;;;;;5112151;28;20038;-70
2022/11/16 09:37:15;;;;;;;5.80;2.65;;;;;;;;;;5111524;28;20153;-70
2022/11/16 09:39:42;;;;;;;3.80;2.13;;;;;;;;;;5111798;28;20411;-70
2022/11/16 09:42:08;;;;;;;5.65;2.40;;;;;;;;;;5111108;28;20032;-70
2022/11/16 09:44:40;;;;;;;8.52;3.80;;;;;;;;;;5108856;28;20570;-70
2022/11/16 09:47:20;;;;;;;4.40;2.35;;;;;;;;;;5099354;27;20011;-70
2022/11/16 09:49:47;;;;;;;;;;;;;;;;;;5097277;28;20047;-69
2022/11/16 09:52:20;;;;;;;6.00;2.90;;;;;;;;;;5109646;28;20398;-70
2022/11/16 09:54:47;;;;;;;10.68;4.20;;;;;;;;;;5111557;28;20058;-70
2022/11/16 09:57:15;;;;;;;12.02;5.40;;;;;;;;;;5093494;28;20026;-70
2022/11/16 09:59:47;;;;;;;11.38;4.40;;;;;;;;;;5111594;28;20076;-70
2022/11/16 10:02:19;;;;;;;16.50;7.22;;;;;;;;;;5111402;28;20023;-71
2022/11/16 10:04:52;;;;;;;8.20;3.67;;;;;;;;;;5093433;28;20028;-70
2022/11/16 10:07:31;;;;;;;8.88;3.42;;;;;;;;;;5111627;28;20016;-69
2022/11/16 10:09:57;;;;;;;2.95;1.55;;;;;;;;;;5110849;28;20026;-70
2022/11/16 10:12:26;;;;;;;6.20;1.90;;;;;;;;;;5111055;28;20024;-70
2022/11/16 10:15:06;;;;;;;7.60;2.80;;;;;;;;;;5109358;28;20076;-69
2022/11/16 10:17:51;;;;;;;3.88;1.63;;;;;;;;;;5109993;28;20031;-70
2022/11/16 10:20:20;;;;;;;17.95;8.05;;;;;;;;;;5092920;28;20034;-70
2022/11/16 10:22:52;;;;;;;7.57;3.50;;;;;;;;;;5110907;28;20020;-69
2022/11/16 10:25:21;;;;;;;28.85;12.43;;;;;;;;;;5094939;28;20511;-70
2022/11/16 10:28:06;;;;;;;6.95;2.80;;;;;;;;;;5094790;28;20396;-70
2022/11/16 10:30:35;;;;;;;8.77;3.92;;;;;;;;;;5110184;28;20027;-70
2022/11/16 10:33:04;;;;;;;10.55;3.83;;;;;;;;;;5110923;28;20048;-70
2022/11/16 10:35:42;;;;;;;19.48;9.45;;;;;;;;;;5110697;28;20032;-70
2022/11/16 10:38:16;;;;;;;47.33;22.13;;;;;;;;;;5110818;28;20054;-70
2022/11/16 10:40:45;;;;;;;8.95;3.58;;;;;;;;;;5110753;28;20050;-70
2022/11/16 10:43:19;;;;;;;4.80;1.35;;;;;;;;;;5110693;28;20023;-70
2022/11/16 10:45:56;;;;;;;4.65;1.88;;;;;;;;;;5110151;28;20031;-70
2022/11/16 10:48:35;;;;;;;3.50;2.33;;;;;;;;;;5110732;28;20392;-70
2022/11/16 10:51:03;;;;;;;5.60;1.77;;;;;;;;;;5105104;28;20042;-70
2022/11/16 10:53:37;;;;;;;6.07;1.48;;;;;;;;;;5107839;28;20012;-69
2022/11/16 10:56:24;;;;;;;14.45;3.47;;;;;;;;;;5110654;28;20031;-70
2022/11/16 10:58:51;;;;;;;3.70;1.40;;;;;;;;;;5110334;28;20514;-70
2022/11/16 11:01:27;;;;;;;3.70;1.30;;;;;;;;;;5110880;28;20032;-70
2022/11/16 11:03:53;;;;;;;3.95;1.35;;;;;;;;;;5110629;28;20472;-70
2022/11/16 11:06:20;;;;;;;6.95;1.60;;;;;;;;;;5097082;28;20024;-70
2022/11/16 11:08:47;;;;;;;3.33;1.25;;;;;;;;;;5090070;28;20026;-70
2022/11/16 11:14:08;;;;;;;5.13;1.45;;;;;;;;;;5089856;28;20025;-70
2022/11/16 11:16:35;;;;;;;7.40;1.80;;;;;;;;;;5089615;28;20016;-70
2022/11/16 11:19:28;;;;;;;7.70;1.58;;;;;;;;;;5090263;28;20036;-70
2022/11/16 11:22:03;;;;;;;3.30;1.35;;;;;;;;;;5085606;28;20044;-70
2022/11/16 11:24:29;;;;;;;6.38;1.90;;;;;;;;;;5090084;28;20030;-70
2022/11/16 11:26:59;;;;;;;8.07;1.70;;;;;;;;;;5090180;28;20016;-70
2022/11/16 11:29:25;;;;;;;5.35;1.75;;;;;;;;;;5090117;28;20027;-70
2022/11/16 11:31:53;;;;;;;2.65;1.40;;;;;;;;;;5089082;28;20713;-71
2022/11/16 11:34:24;;;;;;;6.35;1.60;;;;;;;;;;5090104;28;20034;-70
2022/11/16 11:36:50;;;;;;;;;;;;;;;;;;5089994;28;20497;-70
2022/11/16 11:39:17;;;;;;;4.45;1.40;;;;;;;;;;5061676;28;20428;-70
2022/11/16 11:41:44;;;;;;;2.88;1.45;;;;;;;;;;5069517;28;20039;-70
2022/11/16 11:44:13;;;;;;;3.45;1.40;;;;;;;;;;5070155;28;20485;-70
2022/11/16 11:46:56;;;;;;;2.72;1.42;;;;;;;;;;5069973;28;20020;-70
2022/11/16 11:49:26;;;;;;;3.28;1.20;;;;;;;;;;5070083;28;20563;-71
2022/11/16 11:51:55;;;;;;;3.80;1.40;;;;;;;;;;5070882;28;20012;-70
2022/11/16 11:54:24;;;;;;;3.70;1.38;;;;;;;;;;5089092;28;20036;-70
2022/11/16 11:56:51;;;;;;;4.35;1.50;;;;;;;;;;5090243;28;20038;-71
2022/11/16 11:59:19;;;;;;;3.70;1.52;;;;;;;;;;5089936;28;20036;-71
2022/11/16 12:01:57;;;;;;;8.38;1.55;;;;;;;;;;5090008;28;20032;-71
2022/11/16 12:04:23;;;;;;;4.30;1.60;;;;;;;;;;5069669;28;20016;-70
2022/11/16 12:06:59;;;;;;;4.38;1.70;;;;;;;;;;5072235;28;20019;-71
2022/11/16 12:09:38;;;;;;;3.80;1.48;;;;;;;;;;5073644;28;20024;-70
2022/11/16 12:12:14;;;;;;;6.40;1.67;;;;;;;;;;5073311;28;20036;-70
2022/11/16 12:14:59;;;;;;;5.95;1.45;;;;;;;;;;5073760;28;20026;-71
2022/11/16 12:17:29;;;;;;;6.22;1.70;;;;;;;;;;5073204;28;20017;-71
2022/11/16 12:20:01;;;;;;;3.15;1.63;;;;;;;;;;5072745;28;20033;-71
2022/11/16 12:22:40;;;;;;;5.90;1.63;;;;;;;;;;5072825;28;20028;-71
2022/11/16 12:25:12;;;;;;;2.97;1.30;;;;;;;;;;5071802;28;20024;-70
2022/11/16 12:28:02;;;;;;;5.75;1.80;;;;;;;;;;5072793;28;20028;-72
2022/11/16 12:30:29;;;;;;;;;;;;;;;;;;5030820;28;20037;-71
2022/11/16 12:33:01;;;;;;;5.43;1.42;;;;;;;;;;5030552;28;20040;-71
2022/11/16 12:35:36;;;;;;;5.65;1.50;;;;;;;;;;5013795;28;20033;-71
2022/11/16 12:38:26;;;;;;;5.25;1.15;;;;;;;;;;5030561;28;20061;-71
2022/11/16 12:41:08;;;;;;;5.78;1.70;;;;;;;;;;5030178;28;20045;-71
2022/11/16 12:43:37;;;;;;;3.97;1.38;;;;;;;;;;5030797;28;20107;-70
2022/11/16 12:46:12;;;;;;;4.95;1.65;;;;;;;;;;5030699;28;20022;-71
2022/11/16 12:48:48;;;;;;;3.65;1.45;;;;;;;;;;5027657;28;20039;-71
2022/11/16 12:51:33;;;;;;;3.33;1.30;;;;;;;;;;5030190;28;20052;-70
2022/11/16 12:54:03;;;;;;;3.53;1.20;;;;;;;;;;5048529;28;20056;-70
2022/11/16 12:56:44;;;;;;;3.30;1.52;;;;;;;;;;5049858;28;20020;-71
2022/11/16 12:59:10;;;;;;;3.95;1.30;;;;;;;;;;5049839;28;20401;-71
2022/11/16 13:01:48;;;;;;;2.58;1.35;;;;;;;;;;5049866;28;20047;-70
2022/11/16 13:04:18;;;;;;;3.40;1.40;;;;;;;;;;5049587;28;20493;-70
2022/11/16 13:06:53;;;;;;;10.48;1.70;;;;;;;;;;5050212;28;20040;-69
2022/11/16 13:09:22;;;;;;;6.88;1.20;;;;;;;;;;5092426;28;20042;-70
2022/11/16 13:11:54;;;;;;;3.78;1.33;;;;;;;;;;5091998;28;20034;-71
2022/11/16 13:14:25;;;;;;;4.75;1.50;;;;;;;;;;5092627;28;20034;-70
2022/11/16 13:16:53;;;;;;;5.28;1.30;;;;;;;;;;5091617;28;20028;-71
2022/11/16 13:19:20;;;;;;;5.50;1.38;;;;;;;;;;5091379;28;20034;-70
2022/11/16 13:22:07;;;;;;;5.15;1.23;;;;;;;;;;5091565;28;20481;-70
2022/11/16 13:24:52;;;;;;;3.45;1.20;;;;;;;;;;5092098;28;20374;-69
2022/11/16 13:27:24;;;;;;;5.07;1.40;;;;;;;;;;5091196;28;20020;-70
2022/11/16 13:30:03;;;;;;;5.43;2.40;;;;;;;;;;5091733;28;20027;-70
2022/11/16 13:32:39;;;;;;;5.78;1.20;;;;;;;;;;5091784;28;20027;-70
2022/11/16 13:35:06;;;;;;;2.88;1.10;;;;;;;;;;5091974;28;20087;-70
2022/11/16 13:37:38;;;;;;;2.20;1.25;;;;;;;;;;5073002;28;20048;-71
2022/11/16 13:40:05;;;;;;;9.23;1.35;;;;;;;;;;5090812;28;20028;-71
2022/11/16 13:42:57;;;;;;;2.75;1.20;;;;;;;;;;5091436;28;20020;-71
2022/11/16 13:45:25;;;;;;;15.15;1.25;;;;;;;;;;4989382;28;20042;-71
2022/11/16 13:47:52;;;;;;;4.10;1.10;;;;;;;;;;4989069;28;20045;-71
2022/11/16 13:50:20;;;;;;;18.15;15.32;;;;;;;;;;4989215;28;20046;-70
2022/11/16 13:52:56;;;;;;;3.28;1.35;;;;;;;;;;5009181;28;20030;-70
2022/11/16 13:55:37;;;;;;;4.63;1.42;;;;;;;;;;5009687;28;20053;-70
2022/11/16 13:58:04;;;;;;;4.30;1.50;;;;;;;;;;5008350;28;20054;-71
2022/11/16 14:00:38;;;;;;;5.63;1.50;;;;;;;;;;5008042;28;20042;-70
2022/11/16 14:03:10;;;;;;;4.35;1.40;;;;;;;;;;4988710;28;20034;-71
2022/11/16 14:05:38;;;;;;;4.45;1.30;;;;;;;;;;4989066;28;20026;-70
2022/11/16 14:08:19;;;;;;;2.85;0.90;;;;;;;;;;4989450;28;20125;-70
2022/11/16 14:10:49;;;;;;;3.45;1.30;;;;;;;;;;4973135;28;20048;-70
2022/11/16 14:13:34;;;;;;;3.80;0.90;;;;;;;;;;4989211;28;20038;-70
2022/11/16 14:16:20;;;;;;;4.95;0.90;;;;;;;;;;4984532;28;20046;-70
2022/11/16 14:18:50;;;;;;;5.45;1.02;;;;;;;;;;4992580;28;20032;-70
2022/11/16 14:21:16;;;;;;;4.20;1.03;;;;;;;;;;5014911;28;20447;-70
2022/11/16 14:23:52;;;;;;;4.30;1.08;;;;;;;;;;5081448;28;20032;-70
2022/11/16 14:26:18;;;;;;;4.85;1.02;;;;;;;;;;5087950;28;20013;-70
2022/11/16 14:29:03;;;;;;;2.00;0.75;;;;;;;;;;5090050;28;20034;-70
2022/11/16 14:31:31;;;;;;;4.35;1.35;;;;;;;;;;5090142;28;20477;-69
2022/11/16 14:33:59;;;;;;;3.90;1.13;;;;;;;;;;5090519;28;20035;-70
2022/11/16 14:36:39;;;;;;;3.60;1.10;;;;;;;;;;5090621;28;20088;-70
2022/11/16 14:39:24;;;;;;;2.05;0.95;;;;;;;;;;5091034;28;20077;-70
2022/11/16 14:41:51;;;;;;;4.72;1.52;;;;;;;;;;5072215;28;20044;-70
2022/11/16 14:44:19;;;;;;;2.92;0.82;;;;;;;;;;5070510;28;20019;-70
2022/11/16 14:46:46;;;;;;;3.50;0.80;;;;;;;;;;5070632;28;20028;-70
2022/11/16 14:49:14;;;;;;;3.50;0.90;;;;;;;;;;5078488;28;20020;-70
2022/11/16 14:51:44;;;;;;;2.78;1.02;;;;;;;;;;5082684;28;20515;-70
2022/11/16 14:54:26;;;;;;;1.75;0.73;;;;;;;;;;5078415;28;20511;-70
2022/11/16 14:57:00;;;;;;;2.35;0.73;;;;;;;;;;5088889;28;20027;-70
2022/11/16 14:59:26;;;;;;;3.13;1.42;;;;;;;;;;5088441;28;20036;-69
2022/11/16 15:01:53;;;;;;;5.30;1.60;;;;;;;;;;5090220;28;20032;-70
2022/11/16 15:04:20;;;;;;;5.60;2.75;;;;;;;;;;5090430;28;20021;-69
2022/11/16 15:06:50;;;;;;;5.50;1.52;;;;;;;;;;5090525;28;20024;-69
2022/11/16 15:09:20;;;;;;;5.47;1.30;;;;;;;;;;5090217;28;20020;-69
2022/11/16 15:14:33;;;;;;;4.05;1.17;;;;;;;;;;5089701;28;20855;-70
2022/11/16 15:17:00;;;;;;;3.35;0.95;;;;;;;;;;5083440;28;20027;-70
2022/11/16 15:19:30;;;;;;;2.97;0.98;;;;;;;;;;5090358;28;20509;-69
2022/11/16 15:21:58;;;;;;;12.15;3.03;;;;;;;;;;5090157;28;20393;-69
2022/11/16 15:24:34;;;;;;;10.50;3.90;;;;;;;;;;5090693;28;20024;-69
2022/11/16 15:27:02;;;;;;;12.00;4.70;;;;;;;;;;5090282;28;20024;-69
2022/11/16 15:29:29;;;;;;;5.38;2.80;;;;;;;;;;5090111;28;20020;-69
2022/11/16 15:31:55;;;;;;;6.00;2.00;;;;;;;;;;5090362;28;20043;-69
2022/11/16 15:34:21;;;;;;;4.65;1.73;;;;;;;;;;5090509;28;20035;-68
2022/11/16 15:36:48;;;;;;;6.35;2.05;;;;;;;;;;5068636;28;20048;-68
2022/11/16 15:39:27;;;;;;;4.95;2.13;;;;;;;;;;5088252;28;20024;-69
2022/11/16 15:41:53;;;;;;;14.02;5.45;;;;;;;;;;5075477;28;20037;-69